createdAt,value
2023-04-04T17:12:32.418Z,18
2023-04-04T17:13:37.819Z,19
2023-04-04T17:14:44.364Z,19
2023-04-04T17:18:31.133Z,19
2023-04-04T17:19:37.302Z,14
2023-04-04T17:20:43.586Z,12
2023-04-04T17:21:49.789Z,12
2023-04-04T17:22:55.934Z,11
2023-04-04T17:24:02.216Z,11
2023-04-04T17:25:08.478Z,11
2023-04-04T17:26:14.498Z,11
2023-04-04T17:27:20.869Z,10
2023-04-04T17:28:27.153Z,10
2023-04-04T17:29:33.159Z,10
2023-04-04T17:30:39.351Z,10
2023-04-04T17:31:45.562Z,10
2023-04-04T17:32:51.777Z,9
2023-04-04T17:33:58.136Z,9
2023-04-04T17:35:04.360Z,9
2023-04-04T17:36:10.492Z,9
2023-04-04T17:37:16.749Z,9
2023-04-04T17:38:22.833Z,9
2023-04-04T17:39:29.223Z,9
2023-04-04T17:40:34.306Z,9
2023-04-04T17:41:39.535Z,9
2023-04-04T17:42:45.840Z,9
2023-04-04T17:43:52.102Z,8
2023-04-04T17:44:58.322Z,8
2023-04-04T17:46:04.575Z,8
2023-04-04T17:47:10.614Z,8
2023-04-04T17:48:16.830Z,8
2023-04-04T17:49:23.207Z,8
2023-04-04T17:50:29.243Z,8
2023-04-04T17:51:35.634Z,8
2023-04-04T17:52:41.689Z,8
2023-04-04T17:53:48.013Z,8
2023-04-04T17:56:00.376Z,8
2023-04-04T17:57:05.660Z,8
2023-04-04T17:58:11.978Z,8
2023-04-04T17:59:18.155Z,8
2023-04-04T18:00:24.409Z,7
2023-04-04T18:01:30.527Z,7
2023-04-04T18:02:36.732Z,7
2023-04-04T18:03:43.072Z,7
2023-04-04T18:04:49.073Z,7
2023-04-04T18:05:54.371Z,7
2023-04-04T18:06:59.537Z,7
2023-04-04T18:08:04.812Z,7
2023-04-04T18:09:10.188Z,7
2023-04-04T18:10:16.221Z,7
2023-04-04T18:11:22.474Z,7
2023-04-04T18:12:28.825Z,7
2023-04-04T18:13:34.877Z,7
2023-04-04T18:14:41.234Z,7
2023-04-04T18:15:47.305Z,7
2023-04-04T18:16:53.535Z,7
2023-04-04T18:17:59.737Z,7
2023-04-04T18:19:05.951Z,7
2023-04-04T18:20:12.245Z,6
2023-04-04T18:21:18.519Z,6
2023-04-04T18:23:30.800Z,6
2023-04-04T18:24:36.222Z,6
2023-04-04T18:25:42.350Z,6
2023-04-04T18:26:48.478Z,6
2023-04-04T18:27:54.827Z,6
2023-04-04T18:29:01.061Z,6
2023-04-04T18:30:07.128Z,6
2023-04-04T18:31:13.531Z,6
2023-04-04T18:32:18.760Z,6
2023-04-04T18:33:23.947Z,6
2023-04-04T18:34:30.125Z,6
2023-04-04T18:35:35.274Z,6
2023-04-04T18:36:40.739Z,6
2023-04-04T18:37:46.708Z,6
2023-04-04T18:38:52.933Z,6
2023-04-04T18:39:59.144Z,6
2023-04-04T18:41:05.474Z,6
2023-04-04T18:42:11.588Z,6
2023-04-04T18:43:17.893Z,5
2023-04-04T18:44:24.129Z,5
2023-04-04T18:45:30.224Z,5
2023-04-04T18:46:36.642Z,5
2023-04-04T18:47:42.800Z,5
2023-04-04T18:48:48.869Z,5
2023-04-04T18:49:55.264Z,5
2023-04-04T18:51:00.322Z,5
2023-04-04T18:52:06.746Z,5
2023-04-04T18:53:12.746Z,5
2023-04-04T18:54:18.977Z,5
2023-04-04T18:55:25.205Z,5
2023-04-04T18:56:31.517Z,5
2023-04-04T18:57:37.729Z,5
2023-04-04T18:58:43.040Z,5
2023-04-04T18:59:48.075Z,5
2023-04-04T19:00:53.322Z,5
2023-04-04T19:01:58.712Z,5
2023-04-04T19:03:04.772Z,5
2023-04-04T19:04:11.121Z,5
2023-04-04T19:05:17.210Z,5
2023-04-04T19:06:23.560Z,5
2023-04-04T19:07:29.804Z,5
2023-04-04T19:08:35.863Z,5
2023-04-04T19:09:42.342Z,5
2023-04-04T19:10:48.462Z,5
2023-04-04T19:11:54.643Z,5
2023-04-04T19:13:00.823Z,4
2023-04-04T19:14:06.939Z,4
2023-04-04T19:15:13.162Z,4
2023-04-04T19:16:18.543Z,4
2023-04-04T19:17:24.733Z,4
2023-04-04T19:18:31.084Z,4
2023-04-04T19:19:37.177Z,4
2023-04-04T19:20:43.493Z,4
2023-04-04T19:21:49.486Z,4
2023-04-04T19:22:55.809Z,4
2023-04-04T19:24:00.961Z,4
2023-04-04T19:25:06.362Z,4
2023-04-04T19:26:11.614Z,4
2023-04-04T19:27:16.695Z,4
2023-04-04T19:28:23.047Z,4
2023-04-04T19:29:29.194Z,4
2023-04-04T19:30:35.461Z,4
2023-04-04T19:31:41.685Z,4
2023-04-04T19:32:47.873Z,4
2023-04-04T19:33:54.091Z,4
2023-04-04T19:35:00.326Z,4
2023-04-04T19:36:06.542Z,4
2023-04-04T19:37:12.698Z,4
2023-04-04T19:38:18.981Z,4
2023-04-04T19:39:25.175Z,4
2023-04-04T19:40:31.362Z,4
2023-04-04T19:41:36.728Z,4
2023-04-04T19:42:42.718Z,4
2023-04-04T19:43:49.101Z,4
2023-04-04T19:44:55.150Z,4
2023-04-04T19:46:01.517Z,4
2023-04-04T19:47:07.593Z,4
2023-04-04T19:48:13.979Z,4
2023-04-04T19:49:19.222Z,4
2023-04-04T19:50:24.377Z,4
2023-04-04T19:51:30.656Z,3
2023-04-04T19:52:35.906Z,4
2023-04-04T19:53:41.171Z,3
2023-04-04T19:54:47.203Z,3
2023-04-04T19:55:53.587Z,3
2023-04-04T19:56:59.808Z,3
2023-04-04T19:58:05.970Z,3
2023-04-04T20:00:18.396Z,3
2023-04-04T20:01:24.503Z,3
2023-04-04T20:02:30.821Z,3
2023-04-04T20:03:37.094Z,3
2023-04-04T20:04:43.210Z,3
2023-04-04T20:05:49.517Z,3
2023-04-04T20:06:55.772Z,3
2023-04-04T20:08:01.027Z,3
2023-04-04T20:09:07.052Z,3
2023-04-04T20:10:13.411Z,3
2023-04-04T20:11:19.664Z,3
2023-04-04T20:12:25.901Z,3
2023-04-04T20:13:32.072Z,3
2023-04-04T20:14:38.207Z,3
2023-04-04T20:15:44.505Z,3
2023-04-04T20:16:49.713Z,3
2023-04-04T20:17:54.998Z,3
2023-04-04T20:19:01.247Z,3
2023-04-04T20:20:07.373Z,3
2023-04-04T20:21:13.543Z,3
2023-04-04T20:22:19.882Z,3
2023-04-04T20:23:25.929Z,3
2023-04-04T20:24:32.287Z,3
2023-04-04T20:25:38.507Z,3
2023-04-04T20:26:44.673Z,3
2023-04-04T20:27:50.945Z,3
2023-04-04T20:28:57.165Z,3
2023-04-04T20:30:03.393Z,3
2023-04-04T20:31:09.621Z,3
2023-04-04T20:32:14.693Z,3
2023-04-04T20:33:20.972Z,3
2023-04-04T20:34:27.289Z,3
2023-04-04T20:35:33.498Z,3
2023-04-04T20:36:39.697Z,3
2023-04-04T20:37:45.944Z,3
2023-04-04T20:38:52.004Z,3
2023-04-04T20:39:57.392Z,3
2023-04-04T20:41:02.476Z,3
2023-04-04T20:42:07.723Z,3
2023-04-04T20:43:13.113Z,3
2023-04-04T20:44:18.388Z,3
2023-04-04T20:45:23.564Z,3
2023-04-04T20:46:29.813Z,2
2023-04-04T20:47:35.979Z,2
2023-04-04T20:48:42.216Z,2
2023-04-04T20:49:48.437Z,2
2023-04-04T20:50:54.702Z,2
2023-04-04T20:52:00.932Z,2
2023-04-04T20:53:06.966Z,2
2023-04-04T20:54:13.343Z,2
2023-04-04T20:55:19.403Z,2
2023-04-04T20:56:25.624Z,2
2023-04-04T20:57:31.998Z,2
2023-04-04T20:58:38.231Z,2
2023-04-04T20:59:43.296Z,2
2023-04-04T21:00:49.522Z,2
2023-04-04T21:01:55.750Z,2
2023-04-04T21:03:02.085Z,2
2023-04-04T21:04:08.165Z,2
2023-04-04T21:05:14.401Z,2
2023-04-04T21:06:20.775Z,2
2023-04-04T21:07:25.883Z,2
2023-04-04T21:08:31.282Z,2
2023-04-04T21:09:37.302Z,2
2023-04-04T21:10:43.655Z,2
2023-04-04T21:11:49.745Z,2
2023-04-04T21:12:55.952Z,2
2023-04-04T21:14:02.179Z,2
2023-04-04T21:15:08.554Z,2
2023-04-04T21:16:14.622Z,2
2023-04-04T21:17:20.886Z,2
2023-04-04T21:18:27.047Z,2
2023-04-04T21:19:33.394Z,2
2023-04-04T21:20:39.662Z,2
2023-04-04T21:21:45.797Z,2
2023-04-04T21:22:51.097Z,2
2023-04-04T21:23:57.320Z,2
2023-04-04T21:25:03.504Z,2
2023-04-04T21:26:09.800Z,2
2023-04-04T21:27:15.864Z,2
2023-04-04T21:28:22.016Z,2
2023-04-04T21:29:28.384Z,2
2023-04-04T21:30:33.591Z,2
2023-04-04T21:31:38.755Z,2
2023-04-04T21:32:44.094Z,2
2023-04-04T21:34:55.404Z,2
2023-04-04T21:36:01.776Z,2
2023-04-04T21:37:07.020Z,2
2023-04-04T21:38:12.108Z,2
2023-04-04T21:39:18.448Z,2
2023-04-04T21:41:30.825Z,2
2023-04-04T21:42:36.973Z,2
2023-04-04T21:43:43.274Z,2
2023-04-04T21:44:49.590Z,2
2023-04-04T21:45:55.795Z,2
2023-04-04T21:47:01.847Z,2
2023-04-04T21:48:08.072Z,2
2023-04-04T21:49:14.403Z,2
2023-04-04T21:50:20.642Z,2
2023-04-04T21:51:26.769Z,2
2023-04-04T21:52:32.066Z,2
2023-04-04T21:53:38.346Z,2
2023-04-04T21:54:44.382Z,2
2023-04-04T21:55:50.809Z,2
2023-04-04T21:56:56.981Z,2
2023-04-04T21:58:03.089Z,2
2023-04-04T21:59:09.432Z,2
2023-04-04T22:00:15.670Z,2
2023-04-04T22:01:20.902Z,2
2023-04-04T22:02:26.049Z,1
2023-04-04T22:03:31.302Z,1
2023-04-04T22:04:36.433Z,1
2023-04-04T22:05:42.709Z,1
2023-04-04T22:06:48.968Z,1
2023-04-04T22:07:55.242Z,1
2023-04-04T22:09:01.417Z,1
2023-04-04T22:10:07.543Z,1
2023-04-04T22:11:13.891Z,1
2023-04-04T22:12:19.951Z,1
2023-04-04T22:13:26.333Z,1
2023-04-04T22:14:32.542Z,1
2023-04-04T22:15:38.608Z,1
2023-04-04T22:16:44.817Z,1
2023-04-04T22:17:51.223Z,1
2023-04-04T22:18:56.298Z,1
2023-04-04T22:20:02.618Z,1
2023-04-04T22:21:08.857Z,1
2023-04-04T22:22:15.100Z,1
2023-04-04T22:23:21.145Z,1
2023-04-04T22:24:27.501Z,1
2023-04-04T22:25:33.763Z,1
2023-04-04T22:26:38.829Z,1
2023-04-04T22:27:44.063Z,1
2023-04-04T22:28:49.312Z,1
2023-04-04T22:29:54.658Z,1
2023-04-04T22:31:00.837Z,1
2023-04-04T22:32:07.166Z,1
2023-04-04T22:33:13.373Z,1
2023-04-04T22:34:19.427Z,1
2023-04-04T22:35:25.720Z,1
2023-04-04T22:36:31.872Z,1
2023-04-04T22:37:38.180Z,1
2023-04-04T22:38:44.309Z,1
2023-04-04T22:39:50.657Z,1
2023-04-04T22:40:56.775Z,1
2023-04-04T22:42:03.137Z,1
2023-04-04T22:43:09.278Z,1
2023-04-04T22:44:14.562Z,1
2023-04-04T22:45:20.743Z,1
2023-04-04T22:46:26.973Z,1
2023-04-04T22:47:33.232Z,1
2023-04-04T22:48:39.413Z,1
2023-04-04T22:49:45.503Z,1
2023-04-04T22:50:51.878Z,1
2023-04-04T22:51:56.980Z,1
2023-04-04T22:53:02.306Z,1
2023-04-04T22:54:08.555Z,1
2023-04-04T22:55:14.793Z,1
2023-04-04T22:56:20.832Z,1
2023-04-04T22:57:27.062Z,1
2023-04-04T22:58:33.521Z,1
2023-04-04T22:59:39.594Z,1
2023-04-04T23:00:45.825Z,1
2023-04-04T23:02:58.295Z,1
2023-04-04T23:04:04.594Z,1
2023-04-04T23:05:10.667Z,1
2023-04-04T23:06:16.921Z,1
2023-04-04T23:07:22.295Z,1
2023-04-04T23:08:28.263Z,1
2023-04-04T23:09:34.571Z,1
2023-04-04T23:10:40.700Z,1
2023-04-04T23:11:46.928Z,1
2023-04-04T23:12:53.257Z,1
2023-04-04T23:13:59.355Z,1
2023-04-04T23:15:05.689Z,1
2023-04-04T23:16:10.983Z,1
2023-04-04T23:17:16.082Z,1
2023-04-04T23:18:21.460Z,1
2023-04-04T23:19:26.661Z,1
2023-04-04T23:20:32.872Z,1
2023-04-04T23:21:39.108Z,1
2023-04-04T23:22:45.356Z,1
2023-04-04T23:23:51.397Z,1
2023-04-04T23:24:57.789Z,1
2023-04-04T23:26:03.823Z,1
2023-04-04T23:27:10.215Z,1
2023-04-04T23:28:16.427Z,1
2023-04-04T23:29:22.698Z,1
2023-04-04T23:30:28.943Z,1
2023-04-04T23:31:34.973Z,1
2023-04-04T23:32:41.297Z,1
2023-04-04T23:33:46.358Z,1
2023-04-04T23:34:52.728Z,1
2023-04-04T23:35:58.894Z,1
2023-04-04T23:37:05.163Z,1
2023-04-04T23:38:11.342Z,1
2023-04-04T23:39:17.570Z,1
2023-04-04T23:40:23.799Z,1
2023-04-04T23:41:29.057Z,1
2023-04-04T23:42:34.298Z,1
2023-04-04T23:43:40.361Z,1
2023-04-04T23:44:46.587Z,1
2023-04-04T23:45:52.950Z,1
2023-04-04T23:46:59.038Z,1
2023-04-04T23:48:05.412Z,1
2023-04-04T23:49:11.604Z,1
2023-04-04T23:50:17.792Z,1
2023-04-04T23:51:23.986Z,1
2023-04-04T23:52:30.248Z,1
2023-04-04T23:53:36.386Z,1
2023-04-04T23:54:42.538Z,1
2023-04-04T23:55:48.952Z,1
2023-04-04T23:56:54.125Z,1
2023-04-04T23:58:00.387Z,1
2023-04-04T23:59:06.590Z,1
